Amagi Galaxy — V7VE9 — position and weather

sailwx.info

Track history (hours):
 
Tides and Currents Weather Stations Pressure Air Temp Water Temp Dewpoint Dewpoint Depression Visibility Wind Speed Wind Dir Waves Ship Positions

Amagi Galaxy

Last reported at 2015-May-07 10:32 UTC. Time now 2015-May-23 05:49 UTC.
Position S 25°60' E 153°21'.
Warning: this ship's position is 15 days out of date.

Length 152 m; draft 9.3 m.

Type: Tanker. MMSI: 538004105.

Date/timePositionNaut miles runAvg speedWind from/ knotsBaromVisibWave heightAir tempDewpointWater temp
2015-May-07 10:32S 25°60' E 153°21'4214.0
2015-May-07 07:33S 26°41' E 153°14'1111.2
2015-May-07 06:33S 26°51' E 153°09'1413.6
2015-May-07 05:33S 27°03' E 153°17'1212.2
2015-May-07 04:33S 27°15' E 153°19'1212.3
2015-May-07 03:33S 27°24' E 153°09'1 0.8
2015-May-07 02:29S 27°24' E 153°09'0 0.0
2015-May-06 11:05S 27°24' E 153°09'0 0.0
2015-May-06 10:29S 27°24' E 153°09'0 0.0
2015-May-06 09:11S 27°24' E 153°09'0 0.0
2015-May-06 08:26S 27°24' E 153°09'0 0.0
2015-May-06 06:11S 27°24' E 153°09'0 0.0
2015-May-06 02:07S 27°24' E 153°09'1 2.6
2015-May-06 01:33S 27°23' E 153°09'1010.2
2015-May-06 00:33S 27°15' E 153°17'1111.3
2015-May-05 23:33S 27°04' E 153°18'1313.0
2015-May-05 22:33S 26°53' E 153°10'10 9.5
2015-May-05 21:33S 26°44' E 153°11'4 4.4
2015-May-05 20:33S 26°41' E 153°15'7 6.7
2015-May-05 19:33S 26°39' E 153°22'7 7.1
2015-May-05 18:33S 26°36' E 153°30'1110.7
2015-May-05 17:33S 26°31' E 153°40'9 8.7
2015-May-05 16:33S 26°24' E 153°46'1110.9
2015-May-05 15:33S 26°13' E 153°46'3913.1
2015-May-05 12:33S 25°34' E 153°50'  
2015-Apr-28 22:22S 04°06' E 127°42'1214.6
2015-Apr-28 21:31S 03°54' E 127°37'1414.5
2015-Apr-28 20:33S 03°42' E 127°31'1514.6
2015-Apr-28 19:33S 03°28' E 127°25'1414.1
2015-Apr-28 18:33S 03°15' E 127°21'  
Track history (hours):
 
Tides and Currents Weather Stations Pressure Air Temp Water Temp Dewpoint Dewpoint Depression Visibility Wind Speed Wind Dir Waves Ship Positions

Amagi Galaxy

Last reported at 2015-May-07 10:32 UTC. Time now 2015-May-23 05:49 UTC.
Position S 25°60' E 153°21'.
Warning: this ship's position is 15 days out of date.

Length 152 m; draft 9.3 m.

Type: Tanker. MMSI: 538004105.

Date/timePositionNaut miles runAvg speedWind from/ knotsBaromVisibWave heightAir tempDewpointWater temp
2015-May-07 10:32S 25°60' E 153°21'4214.0
2015-May-07 07:33S 26°41' E 153°14'1111.2
2015-May-07 06:33S 26°51' E 153°09'1413.6
2015-May-07 05:33S 27°03' E 153°17'1212.2
2015-May-07 04:33S 27°15' E 153°19'1212.3
2015-May-07 03:33S 27°24' E 153°09'1 0.8
2015-May-07 02:29S 27°24' E 153°09'0 0.0
2015-May-06 11:05S 27°24' E 153°09'0 0.0
2015-May-06 10:29S 27°24' E 153°09'0 0.0
2015-May-06 09:11S 27°24' E 153°09'0 0.0
2015-May-06 08:26S 27°24' E 153°09'0 0.0
2015-May-06 06:11S 27°24' E 153°09'0 0.0
2015-May-06 02:07S 27°24' E 153°09'1 2.6
2015-May-06 01:33S 27°23' E 153°09'1010.2
2015-May-06 00:33S 27°15' E 153°17'1111.3
2015-May-05 23:33S 27°04' E 153°18'1313.0
2015-May-05 22:33S 26°53' E 153°10'10 9.5
2015-May-05 21:33S 26°44' E 153°11'4 4.4
2015-May-05 20:33S 26°41' E 153°15'7 6.7
2015-May-05 19:33S 26°39' E 153°22'7 7.1
2015-May-05 18:33S 26°36' E 153°30'1110.7
2015-May-05 17:33S 26°31' E 153°40'9 8.7
2015-May-05 16:33S 26°24' E 153°46'1110.9
2015-May-05 15:33S 26°13' E 153°46'3913.1
2015-May-05 12:33S 25°34' E 153°50'  
2015-Apr-28 22:22S 04°06' E 127°42'1214.6
2015-Apr-28 21:31S 03°54' E 127°37'1414.5
2015-Apr-28 20:33S 03°42' E 127°31'1514.6
2015-Apr-28 19:33S 03°28' E 127°25'1414.1
2015-Apr-28 18:33S 03°15' E 127°21'  

Dump ship's entire track history